Time;durP1;ratioP1;P1;durP2;ratioP2;P2;SDS_P1;SDS_P2;PMS_P1;PMS_P2;Temp;Humidity;BMP_temperature;BMP_pressure;BME280_temperature;BME280_humidity;BME280_pressure;Samples;Min_cycle;Max_cycle;Signal;HPM_P1;HPM_P2
2023/11/01 00:02:07;;;;;;;8.27;1.80;;;18.30;64.20;;;;;;5115099;28;20217;-60
2023/11/01 00:04:35;;;;;;;9.90;2.53;;;18.30;64.20;;;;;;5115539;28;20217;-59
2023/11/01 00:07:02;;;;;;;7.25;2.28;;;18.30;64.20;;;;;;5114791;28;20217;-59
2023/11/01 00:09:29;;;;;;;9.68;2.22;;;18.30;64.20;;;;;;5114733;28;20221;-61
2023/11/01 00:11:56;;;;;;;6.93;1.98;;;18.30;65.00;;;;;;5114897;28;20225;-58
2023/11/01 00:14:23;;;;;;;8.32;2.47;;;18.30;64.20;;;;;;5114453;28;20314;-56
2023/11/01 00:16:50;;;;;;;7.85;2.10;;;18.30;64.20;;;;;;5114773;28;20272;-61
2023/11/01 00:19:19;;;;;;;8.77;1.70;;;18.30;64.20;;;;;;5114720;28;20214;-60
2023/11/01 00:21:46;;;;;;;9.73;2.17;;;18.30;64.20;;;;;;5114187;28;20268;-60
2023/11/01 00:24:13;;;;;;;6.63;1.88;;;18.30;64.20;;;;;;5114586;28;20217;-59
2023/11/01 00:26:40;;;;;;;8.88;2.00;;;18.30;64.20;;;;;;5114839;28;20185;-60
2023/11/01 00:29:08;;;;;;;5.53;2.00;;;18.30;64.20;;;;;;5114243;28;20296;-61
2023/11/01 00:31:35;;;;;;;8.70;2.15;;;18.30;64.20;;;;;;5114344;28;20647;-59
2023/11/01 00:34:02;;;;;;;6.82;2.00;;;18.30;64.20;;;;;;5114617;28;20236;-60
2023/11/01 00:36:30;;;;;;;9.40;2.22;;;18.30;64.20;;;;;;5113909;28;20272;-60
2023/11/01 00:38:57;;;;;;;5.97;1.73;;;18.30;64.20;;;;;;5113992;28;20229;-59
2023/11/01 00:41:24;;;;;;;6.30;2.05;;;18.30;64.20;;;;;;5114730;28;20208;-60
2023/11/01 00:43:51;;;;;;;6.30;2.03;;;18.40;64.30;;;;;;5114285;28;20578;-60
2023/11/01 00:46:19;;;;;;;7.68;2.20;;;18.30;64.20;;;;;;5114320;28;20267;-58
2023/11/01 00:48:46;;;;;;;6.60;1.90;;;18.30;64.20;;;;;;5114334;28;20299;-61
2023/11/01 00:51:13;;;;;;;8.48;1.90;;;18.30;64.20;;;;;;5114014;28;20190;-61
2023/11/01 00:53:42;;;;;;;7.85;2.13;;;18.30;64.20;;;;;;5113932;28;20342;-58
2023/11/01 00:56:09;;;;;;;5.47;1.88;;;18.30;64.20;;;;;;5114077;28;20213;-58
2023/11/01 00:58:37;;;;;;;10.80;2.72;;;18.30;64.20;;;;;;5113771;28;20224;-60
2023/11/01 01:01:04;;;;;;;6.93;1.75;;;18.30;64.20;;;;;;5113747;28;20287;-60
2023/11/01 01:03:31;;;;;;;8.02;2.03;;;18.40;64.30;;;;;;5113742;28;20618;-62
2023/11/01 01:05:58;;;;;;;8.77;2.30;;;18.40;64.30;;;;;;5113335;28;20280;-60
2023/11/01 01:08:26;;;;;;;8.13;2.08;;;18.30;64.20;;;;;;5113502;28;20213;-61
2023/11/01 01:10:54;;;;;;;8.48;2.08;;;18.30;64.20;;;;;;5113891;28;20200;-59
2023/11/01 01:13:21;;;;;;;5.05;1.60;;;18.30;64.20;;;;;;5113579;28;20294;-61
2023/11/01 01:15:49;;;;;;;7.35;2.20;;;18.30;64.20;;;;;;5113725;28;20223;-58
2023/11/01 01:18:25;;;;;;;4.35;2.00;;;18.30;64.20;;;;;;5113675;28;20249;-59
2023/11/01 01:20:52;;;;;;;8.65;1.98;;;18.30;64.20;;;;;;5113038;28;20189;-60
2023/11/01 01:23:19;;;;;;;7.72;1.75;;;18.40;64.30;;;;;;5113706;28;20316;-60
2023/11/01 01:25:46;;;;;;;6.32;1.92;;;18.30;64.20;;;;;;5113616;28;20272;-58
2023/11/01 01:28:15;;;;;;;5.93;1.98;;;18.30;64.20;;;;;;5113115;28;20221;-58
2023/11/01 01:30:42;;;;;;;6.10;2.28;;;18.30;64.20;;;;;;5113534;28;20185;-62
2023/11/01 01:33:09;;;;;;;8.63;1.77;;;18.30;64.20;;;;;;5113419;28;20213;-62
2023/11/01 01:35:36;;;;;;;7.38;1.90;;;18.30;64.20;;;;;;5112308;28;20581;-62
2023/11/01 01:38:03;;;;;;;6.55;1.92;;;18.30;64.20;;;;;;5112449;28;20724;-63
2023/11/01 01:40:34;;;;;;;7.10;2.03;;;18.30;64.20;;;;;;5113376;28;20185;-64
2023/11/01 01:43:10;;;;;;;8.85;2.10;;;18.40;64.30;;;;;;5112952;28;20217;-61
2023/11/01 01:45:38;;;;;;;6.25;1.85;;;18.30;64.20;;;;;;5113098;28;20181;-63
2023/11/01 01:48:06;;;;;;;4.97;1.65;;;18.30;64.20;;;;;;5113149;28;20299;-62
2023/11/01 01:50:34;;;;;;;7.35;2.30;;;18.30;64.20;;;;;;5112858;28;20322;-61
2023/11/01 01:53:01;;;;;;;5.55;1.30;;;18.30;64.20;;;;;;5112792;28;20635;-63
2023/11/01 01:55:28;;;;;;;5.18;1.90;;;18.30;64.20;;;;;;5112690;28;20304;-63
2023/11/01 01:57:58;;;;;;;4.80;1.67;;;18.40;64.30;;;;;;5112639;28;20268;-62
2023/11/01 02:00:28;;;;;;;7.03;1.73;;;18.30;64.20;;;;;;5112653;28;20733;-62
2023/11/01 02:02:57;;;;;;;5.63;1.73;;;18.30;64.20;;;;;;5110607;28;20745;-62
2023/11/01 02:05:24;;;;;;;5.57;1.75;;;18.30;64.20;;;;;;5112309;28;20696;-61
2023/11/01 02:07:51;;;;;;;8.32;1.73;;;18.30;64.20;;;;;;5112781;28;20189;-61
2023/11/01 02:10:18;;;;;;;6.28;2.05;;;18.40;64.30;;;;;;5112878;28;20185;-62
2023/11/01 02:12:45;;;;;;;7.95;2.03;;;18.30;64.20;;;;;;5112173;28;20188;-59
2023/11/01 02:15:12;;;;;;;4.35;1.65;;;18.30;64.20;;;;;;5112796;28;20227;-62
2023/11/01 02:17:39;;;;;;;6.40;1.85;;;18.30;64.20;;;;;;5112637;28;20185;-63
2023/11/01 02:20:10;;;;;;;6.97;1.83;;;18.40;64.30;;;;;;5112639;28;20276;-63
2023/11/01 02:22:37;;;;;;;4.97;1.42;;;18.30;64.20;;;;;;5112759;28;20259;-61
2023/11/01 02:25:07;;;;;;;9.73;1.80;;;18.30;64.20;;;;;;5112758;28;20217;-62
2023/11/01 02:27:34;;;;;;;4.35;1.40;;;18.30;64.20;;;;;;5112290;28;20189;-61
2023/11/01 02:30:00;;;;;;;8.20;1.85;;;18.30;64.20;;;;;;5112606;28;20694;-61
2023/11/01 02:32:30;;;;;;;8.70;1.73;;;18.40;64.30;;;;;;5112308;28;20721;-63
2023/11/01 02:34:57;;;;;;;6.82;1.52;;;18.40;64.30;;;;;;5112245;28;20229;-63
2023/11/01 02:37:23;;;;;;;6.78;1.60;;;18.40;64.30;;;;;;5112359;28;20186;-61
2023/11/01 02:39:50;;;;;;;4.00;1.50;;;18.30;64.20;;;;;;5112998;28;20710;-63
2023/11/01 02:42:19;;;;;;;5.63;1.85;;;18.40;64.30;;;;;;5112157;28;20284;-62
2023/11/01 02:44:46;;;;;;;7.97;1.92;;;18.30;64.20;;;;;;5112548;28;20224;-62
2023/11/01 02:47:13;;;;;;;4.88;1.60;;;18.30;64.20;;;;;;5112824;28;20282;-63
2023/11/01 02:49:39;;;;;;;5.10;1.50;;;18.30;64.20;;;;;;5116371;28;20300;-60
2023/11/01 02:52:06;;;;;;;5.53;1.50;;;18.30;64.20;;;;;;5116208;28;20185;-63
2023/11/01 02:54:33;;;;;;;5.80;1.77;;;18.30;64.20;;;;;;5116249;28;20690;-62
2023/11/01 02:57:00;;;;;;;5.40;1.60;;;18.30;64.20;;;;;;5116111;28;20264;-61
2023/11/01 02:59:28;;;;;;;5.70;2.08;;;18.40;64.30;;;;;;5116189;28;20593;-60
2023/11/01 03:01:56;;;;;;;6.32;2.03;;;18.40;64.30;;;;;;5116065;28;20189;-63
2023/11/01 03:04:23;;;;;;;4.07;1.30;;;18.30;64.20;;;;;;5115765;28;20221;-63
2023/11/01 03:06:49;;;;;;;8.95;1.80;;;18.30;64.20;;;;;;5116179;28;20193;-60
2023/11/01 03:09:16;;;;;;;3.22;1.40;;;18.40;64.30;;;;;;5116297;28;20299;-62
2023/11/01 03:11:43;;;;;;;3.83;1.38;;;18.30;64.20;;;;;;5115879;28;20329;-62
2023/11/01 03:14:10;;;;;;;4.57;1.52;;;18.40;64.30;;;;;;5116200;28;20716;-62
2023/11/01 03:16:39;;;;;;;4.57;1.73;;;18.40;64.30;;;;;;5116007;28;20578;-63
2023/11/01 03:19:05;;;;;;;4.68;1.52;;;18.30;64.20;;;;;;5115564;28;20299;-61
2023/11/01 03:21:32;;;;;;;4.03;1.50;;;18.40;64.30;;;;;;5115669;28;20567;-63
2023/11/01 03:23:59;;;;;;;3.47;1.45;;;18.30;64.20;;;;;;5116078;28;20308;-62
2023/11/01 03:26:26;;;;;;;4.95;1.60;;;18.40;64.30;;;;;;5115925;28;20199;-60
2023/11/01 03:28:53;;;;;;;4.55;1.48;;;18.40;64.30;;;;;;5115657;28;20701;-63
2023/11/01 03:31:20;;;;;;;5.50;1.73;;;18.30;64.20;;;;;;5115518;28;20196;-62
2023/11/01 03:33:48;;;;;;;4.07;1.63;;;18.30;64.20;;;;;;5115374;28;20213;-63
2023/11/01 03:36:15;;;;;;;5.75;1.70;;;18.40;64.30;;;;;;5115600;28;20217;-63
2023/11/01 03:38:42;;;;;;;4.03;1.58;;;18.40;64.30;;;;;;5115349;28;20239;-62
2023/11/01 03:41:09;;;;;;;4.70;1.90;;;18.30;64.20;;;;;;5115261;28;20758;-61
2023/11/01 03:43:36;;;;;;;4.93;1.55;;;18.30;64.20;;;;;;5115742;28;20217;-61
2023/11/01 03:46:03;;;;;;;6.78;1.85;;;18.40;64.30;;;;;;5115504;28;20272;-63
2023/11/01 03:48:30;;;;;;;4.95;1.70;;;18.30;64.20;;;;;;5115106;28;20209;-63
2023/11/01 03:50:58;;;;;;;4.57;1.42;;;18.30;64.20;;;;;;5115107;28;20646;-63
2023/11/01 03:53:25;;;;;;;4.18;1.40;;;18.40;64.30;;;;;;5115296;28;20217;-63
2023/11/01 03:55:52;;;;;;;6.10;1.73;;;18.40;64.30;;;;;;5114916;28;20213;-63
2023/11/01 03:58:19;;;;;;;4.60;1.73;;;18.30;65.00;;;;;;5115008;28;20217;-63
2023/11/01 04:00:46;;;;;;;5.97;1.60;;;18.30;64.20;;;;;;5114404;28;20190;-63
2023/11/01 04:03:13;;;;;;;7.20;1.70;;;18.40;64.30;;;;;;5114795;28;20213;-62
2023/11/01 04:05:40;;;;;;;6.10;1.55;;;18.40;64.30;;;;;;5114835;28;20641;-63
2023/11/01 04:08:08;;;;;;;4.82;1.67;;;18.40;64.30;;;;;;5114985;28;20186;-63
2023/11/01 04:10:35;;;;;;;4.80;1.50;;;18.40;64.30;;;;;;5114338;28;20181;-63
2023/11/01 04:13:03;;;;;;;3.55;1.50;;;18.40;64.30;;;;;;5114967;28;20238;-63
2023/11/01 04:15:31;;;;;;;3.67;1.70;;;18.40;64.30;;;;;;5114894;28;20213;-63
2023/11/01 04:17:58;;;;;;;6.50;1.77;;;18.40;64.30;;;;;;5114472;28;20185;-63
2023/11/01 04:20:25;;;;;;;4.18;1.83;;;18.30;64.20;;;;;;5114853;28;20196;-62
2023/11/01 04:22:52;;;;;;;5.55;1.70;;;18.40;64.30;;;;;;5114591;28;20651;-63
2023/11/01 04:25:20;;;;;;;4.88;1.63;;;18.40;64.20;;;;;;5114377;28;20694;-62
2023/11/01 04:27:47;;;;;;;4.30;1.40;;;18.40;64.20;;;;;;5114632;28;20190;-61
2023/11/01 04:30:15;;;;;;;8.38;1.73;;;18.40;64.20;;;;;;5114936;28;20246;-63
2023/11/01 04:32:43;;;;;;;4.72;1.20;;;18.40;64.20;;;;;;5114263;28;20272;-62
2023/11/01 04:35:10;;;;;;;5.88;1.50;;;18.40;64.20;;;;;;5114366;28;20231;-63
2023/11/01 04:37:38;;;;;;;5.03;1.65;;;18.40;64.30;;;;;;5114471;28;20285;-62
2023/11/01 04:40:06;;;;;;;5.35;1.70;;;18.40;64.20;;;;;;5114065;28;20316;-60
2023/11/01 04:42:38;;;;;;;4.13;1.50;;;18.40;64.20;;;;;;5114563;28;20199;-62
2023/11/01 04:45:06;;;;;;;5.75;1.67;;;18.40;64.20;;;;;;5114004;28;20777;-61
2023/11/01 04:47:35;;;;;;;4.80;1.50;;;18.40;64.10;;;;;;5113541;28;20681;-62
2023/11/01 04:50:02;;;;;;;6.35;1.45;;;18.40;64.00;;;;;;5114470;28;20217;-63
2023/11/01 04:52:29;;;;;;;5.47;1.90;;;18.40;63.90;;;;;;5114545;28;20185;-63
2023/11/01 04:54:56;;;;;;;3.67;1.52;;;18.40;63.90;;;;;;5113896;28;20213;-63
2023/11/01 04:57:23;;;;;;;4.80;1.45;;;18.40;63.80;;;;;;5114113;28;20189;-63
2023/11/01 04:59:52;;;;;;;4.82;1.58;;;18.40;63.80;;;;;;5113922;28;20610;-62
2023/11/01 05:02:19;;;;;;;4.57;1.55;;;18.40;63.70;;;;;;5113709;28;20285;-63
2023/11/01 05:04:46;;;;;;;4.45;1.40;;;18.40;63.70;;;;;;5113834;28;20701;-62
2023/11/01 05:07:13;;;;;;;3.22;1.55;;;18.40;63.70;;;;;;5113903;28;20197;-63
2023/11/01 05:09:39;;;;;;;2.90;1.33;;;18.40;63.60;;;;;;5113587;28;20223;-63
2023/11/01 05:12:07;;;;;;;4.35;1.65;;;18.40;63.60;;;;;;5113549;28;20651;-64
2023/11/01 05:14:34;;;;;;;5.10;1.48;;;18.40;63.60;;;;;;5113844;28;20300;-62
2023/11/01 05:17:02;;;;;;;4.30;1.55;;;18.40;63.60;;;;;;5113068;28;21006;-61
2023/11/01 05:19:29;;;;;;;3.17;1.50;;;18.40;63.50;;;;;;5113795;28;20217;-63
2023/11/01 05:21:56;;;;;;;4.65;1.60;;;18.40;63.50;;;;;;5113639;28;20565;-62
2023/11/01 05:24:23;;;;;;;3.70;1.55;;;18.40;63.50;;;;;;5113096;28;20220;-60
2023/11/01 05:26:50;;;;;;;5.40;1.40;;;18.40;63.50;;;;;;5113261;28;20746;-64
2023/11/01 05:29:17;;;;;;;3.75;1.70;;;18.40;63.40;;;;;;5113347;28;20728;-63
2023/11/01 05:31:44;;;;;;;4.25;1.95;;;18.40;63.40;;;;;;5113067;28;20185;-62
2023/11/01 05:34:12;;;;;;;3.22;1.23;;;18.40;63.40;;;;;;5113370;28;20209;-63
2023/11/01 05:36:39;;;;;;;5.25;1.70;;;18.40;63.30;;;;;;5113068;28;20213;-64
2023/11/01 05:39:07;;;;;;;4.05;1.50;;;18.40;63.30;;;;;;5112647;28;20251;-62
2023/11/01 05:41:34;;;;;;;3.55;1.27;;;18.40;63.20;;;;;;5113558;28;20281;-62
2023/11/01 05:44:01;;;;;;;3.80;1.58;;;18.40;63.20;;;;;;5113195;28;20302;-61
2023/11/01 05:46:28;;;;;;;4.07;1.40;;;18.40;63.20;;;;;;5112855;28;20192;-63
2023/11/01 05:48:55;;;;;;;4.07;1.38;;;18.40;63.20;;;;;;5113147;28;20216;-62
2023/11/01 05:51:23;;;;;;;2.50;1.40;;;18.40;64.00;;;;;;5112875;28;20185;-64
2023/11/01 05:53:50;;;;;;;3.60;1.50;;;18.40;63.10;;;;;;5112801;28;20227;-63
2023/11/01 05:56:17;;;;;;;3.63;1.38;;;18.40;63.10;;;;;;5112655;28;20215;-63
2023/11/01 05:58:44;;;;;;;5.15;1.60;;;18.40;63.10;;;;;;5113024;28;20220;-62
2023/11/01 06:01:11;;;;;;;4.15;1.48;;;18.40;63.00;;;;;;5112377;28;20689;-60
2023/11/01 06:03:38;;;;;;;4.20;1.50;;;18.40;63.10;;;;;;5112577;28;20690;-62
2023/11/01 06:06:05;;;;;;;2.78;1.35;;;18.40;63.00;;;;;;5112701;28;20181;-63
2023/11/01 06:08:33;;;;;;;4.03;1.35;;;18.40;63.00;;;;;;5112658;28;20555;-62
2023/11/01 06:11:01;;;;;;;3.10;1.48;;;18.40;63.00;;;;;;5112878;28;20189;-63
2023/11/01 06:13:27;;;;;;;5.13;1.70;;;18.40;63.00;;;;;;5112511;28;20558;-63
2023/11/01 06:15:59;;;;;;;3.92;1.70;;;18.40;63.00;;;;;;5112205;28;20209;-61
2023/11/01 06:18:26;;;;;;;3.90;1.30;;;18.40;63.00;;;;;;5112755;28;20189;-62
2023/11/01 06:20:52;;;;;;;2.45;1.40;;;18.40;63.00;;;;;;5112462;28;20735;-63
2023/11/01 06:23:18;;;;;;;2.85;1.50;;;18.40;63.00;;;;;;5117121;28;20186;-60
2023/11/01 06:25:47;;;;;;;2.92;1.42;;;18.40;63.00;;;;;;5119113;28;20196;-62
2023/11/01 06:28:14;;;;;;;6.55;1.58;;;18.40;62.90;;;;;;5119553;28;20192;-61
2023/11/01 06:30:41;;;;;;;4.50;1.60;;;18.40;62.90;;;;;;5119130;28;20551;-63
2023/11/01 06:33:08;;;;;;;5.53;1.92;;;18.40;62.90;;;;;;5119483;28;20185;-63
2023/11/01 06:35:35;;;;;;;4.32;1.77;;;18.40;62.90;;;;;;5119608;28;20255;-62
2023/11/01 06:38:02;;;;;;;4.38;1.58;;;18.40;62.80;;;;;;5119421;28;20192;-62
2023/11/01 06:40:29;;;;;;;3.78;1.38;;;18.40;62.80;;;;;;5119096;28;20708;-62
2023/11/01 06:42:57;;;;;;;3.85;1.73;;;18.40;62.80;;;;;;5119642;28;20197;-61
2023/11/01 06:45:26;;;;;;;2.95;1.50;;;18.40;62.80;;;;;;5119329;28;20300;-61
2023/11/01 06:47:53;;;;;;;3.53;1.60;;;18.30;62.70;;;;;;5119072;28;20266;-63
2023/11/01 06:50:20;;;;;;;3.72;1.30;;;18.40;62.80;;;;;;5119601;28;20362;-63
2023/11/01 06:52:47;;;;;;;3.97;1.45;;;18.40;62.70;;;;;;5119369;28;20276;-62
2023/11/01 06:55:14;;;;;;;2.95;1.15;;;18.40;62.70;;;;;;5118884;28;20710;-64
2023/11/01 06:57:41;;;;;;;4.63;1.65;;;18.40;62.70;;;;;;5119156;28;20303;-63
2023/11/01 07:00:10;;;;;;;2.25;1.00;;;18.40;62.70;;;;;;5119104;28;20300;-63
2023/11/01 07:02:37;;;;;;;2.72;1.08;;;18.40;62.70;;;;;;5118699;28;20185;-63
2023/11/01 07:05:05;;;;;;;3.92;1.60;;;18.40;62.70;;;;;;5119405;28;20219;-64
2023/11/01 07:07:32;;;;;;;3.75;1.08;;;18.40;62.70;;;;;;5119085;28;20181;-62
2023/11/01 07:10:00;;;;;;;3.47;1.25;;;18.40;62.70;;;;;;5118588;28;20728;-63
2023/11/01 07:12:27;;;;;;;3.20;1.08;;;18.40;62.60;;;;;;5119256;28;20196;-62
2023/11/01 07:14:54;;;;;;;3.63;1.20;;;18.40;62.60;;;;;;5119198;28;20320;-62
2023/11/01 07:17:26;;;;;;;3.60;1.50;;;18.30;62.50;;;;;;5118675;28;20239;-61
2023/11/01 07:19:54;;;;;;;4.50;1.30;;;18.40;62.60;;;;;;5119134;28;20220;-62
2023/11/01 07:22:21;;;;;;;3.50;1.25;;;18.40;62.60;;;;;;5119129;28;20656;-61
2023/11/01 07:24:48;;;;;;;3.15;1.30;;;18.40;62.60;;;;;;5118814;28;20244;-63
2023/11/01 07:27:15;;;;;;;3.45;1.33;;;18.40;62.60;;;;;;5118903;28;20181;-63
2023/11/01 07:29:42;;;;;;;3.20;1.30;;;18.40;62.60;;;;;;5119078;28;20209;-63
2023/11/01 07:32:09;;;;;;;3.70;1.95;;;18.40;62.60;;;;;;5118277;28;20185;-63
2023/11/01 07:34:37;;;;;;;2.13;1.10;;;18.40;62.60;;;;;;5115459;28;20726;-63
2023/11/01 07:37:05;;;;;;;4.88;1.38;;;18.40;62.50;;;;;;5115596;28;20225;-63
2023/11/01 07:39:32;;;;;;;2.95;1.40;;;18.40;62.50;;;;;;5115262;28;20274;-63
2023/11/01 07:41:59;;;;;;;4.18;1.85;;;18.40;62.50;;;;;;5115765;28;20197;-61
2023/11/01 07:44:26;;;;;;;4.28;1.23;;;18.40;62.50;;;;;;5115242;28;20213;-62
2023/11/01 07:46:53;;;;;;;2.85;1.10;;;18.40;62.50;;;;;;5114916;28;20696;-63
2023/11/01 07:49:19;;;;;;;2.45;1.20;;;18.40;62.50;;;;;;5115452;28;20213;-62
2023/11/01 07:51:48;;;;;;;4.05;1.27;;;18.40;62.40;;;;;;5115165;28;20669;-63
2023/11/01 07:54:14;;;;;;;4.82;1.35;;;18.40;62.40;;;;;;5115087;28;20217;-61
2023/11/01 07:56:41;;;;;;;3.45;1.20;;;18.40;62.50;;;;;;5114944;28;20215;-63
2023/11/01 07:59:08;;;;;;;3.03;1.20;;;18.40;62.40;;;;;;5115307;28;20243;-63
2023/11/01 08:01:36;;;;;;;3.25;1.20;;;18.40;62.40;;;;;;5114945;28;20543;-62
2023/11/01 08:04:03;;;;;;;3.92;1.17;;;18.40;62.30;;;;;;5115202;28;20213;-60
2023/11/01 08:06:30;;;;;;;4.22;1.55;;;18.40;62.30;;;;;;5115197;28;20284;-63
2023/11/01 08:08:58;;;;;;;2.85;1.02;;;18.40;62.30;;;;;;5114719;28;20209;-63
2023/11/01 08:11:25;;;;;;;2.35;1.23;;;18.40;62.30;;;;;;5114874;28;20190;-61
2023/11/01 08:13:52;;;;;;;3.03;1.20;;;18.40;62.30;;;;;;5115003;28;20221;-62
2023/11/01 08:16:19;;;;;;;4.35;1.30;;;18.40;62.30;;;;;;5114193;28;20211;-62
2023/11/01 08:18:46;;;;;;;2.40;1.08;;;18.40;62.30;;;;;;5114889;28;20259;-62
2023/11/01 08:21:13;;;;;;;4.18;1.40;;;18.40;62.20;;;;;;5114554;28;20558;-63
2023/11/01 08:23:40;;;;;;;2.83;1.20;;;18.40;62.20;;;;;;5114486;28;20186;-64
2023/11/01 08:26:10;;;;;;;5.07;1.23;;;18.40;62.20;;;;;;5114752;28;20196;-63
2023/11/01 08:28:37;;;;;;;4.03;1.25;;;18.40;62.10;;;;;;5114710;28;20193;-63
2023/11/01 08:31:04;;;;;;;2.63;1.30;;;18.40;62.10;;;;;;5114329;28;20266;-63
2023/11/01 08:33:31;;;;;;;5.15;1.25;;;18.40;62.10;;;;;;5114236;28;20734;-63
2023/11/01 08:35:58;;;;;;;6.20;1.40;;;18.40;62.10;;;;;;5114545;28;20718;-63
2023/11/01 08:38:25;;;;;;;2.53;1.10;;;18.40;62.10;;;;;;5113543;28;20728;-62
2023/11/01 08:40:53;;;;;;;4.50;1.30;;;18.40;62.10;;;;;;5114441;28;20213;-63
2023/11/01 08:43:21;;;;;;;3.80;1.27;;;18.40;62.00;;;;;;5114709;28;20193;-63
2023/11/01 08:45:48;;;;;;;2.40;0.90;;;18.40;62.00;;;;;;5113765;28;20217;-63
2023/11/01 08:48:16;;;;;;;3.95;1.25;;;18.40;62.00;;;;;;5114277;28;20189;-62
2023/11/01 08:50:43;;;;;;;2.83;0.98;;;18.40;62.10;;;;;;5114285;28;20814;-63
2023/11/01 08:53:10;;;;;;;4.95;1.45;;;18.40;62.00;;;;;;5113952;28;20181;-64
2023/11/01 08:55:37;;;;;;;2.95;1.15;;;18.40;62.00;;;;;;5114318;28;20219;-62
2023/11/01 08:58:04;;;;;;;3.45;1.50;;;18.40;62.00;;;;;;5113777;28;20228;-63
2023/11/01 09:00:32;;;;;;;2.72;1.10;;;18.40;62.00;;;;;;5113969;28;20301;-61
2023/11/01 09:02:59;;;;;;;3.38;1.27;;;18.40;62.00;;;;;;5114013;28;20186;-63
2023/11/01 09:05:26;;;;;;;4.85;1.38;;;18.40;62.00;;;;;;5113866;28;20217;-63
2023/11/01 09:07:53;;;;;;;5.50;1.42;;;18.40;62.00;;;;;;5113587;28;20186;-62
2023/11/01 09:10:20;;;;;;;4.38;1.15;;;18.40;62.00;;;;;;5113749;28;20213;-62
2023/11/01 09:12:47;;;;;;;2.10;1.13;;;18.40;62.20;;;;;;5113885;28;20250;-62
2023/11/01 09:15:14;;;;;;;3.60;1.20;;;18.40;62.00;;;;;;5113896;28;20220;-63
2023/11/01 09:17:42;;;;;;;4.15;1.20;;;18.40;61.90;;;;;;5113650;28;20300;-61
2023/11/01 09:20:09;;;;;;;2.45;1.02;;;18.40;61.90;;;;;;5113593;28;20211;-60
2023/11/01 09:22:36;;;;;;;6.65;1.70;;;18.40;61.90;;;;;;5113387;28;20268;-62
2023/11/01 09:25:03;;;;;;;5.10;1.35;;;18.40;61.90;;;;;;5113719;28;20292;-63
2023/11/01 09:27:30;;;;;;;4.85;1.35;;;18.40;61.90;;;;;;5113564;28;20192;-64
2023/11/01 09:29:57;;;;;;;4.50;1.50;;;18.40;61.80;;;;;;5113443;28;20213;-63
2023/11/01 09:32:24;;;;;;;5.00;1.23;;;18.40;61.90;;;;;;5113147;28;20722;-63
2023/11/01 09:34:52;;;;;;;7.28;1.63;;;18.40;61.80;;;;;;5113291;28;20694;-63
2023/11/01 09:37:19;;;;;;;5.18;1.42;;;18.40;61.80;;;;;;5112939;28;20213;-63
2023/11/01 09:39:46;;;;;;;6.25;1.40;;;18.40;61.80;;;;;;5113208;28;20728;-63
2023/11/01 09:42:20;;;;;;;4.88;1.38;;;18.40;61.80;;;;;;5113285;28;20570;-63
2023/11/01 09:44:48;;;;;;;5.47;1.80;;;18.40;61.80;;;;;;5112982;28;20216;-62
2023/11/01 09:47:16;;;;;;;5.80;1.58;;;18.40;61.80;;;;;;5113354;28;20226;-60
2023/11/01 09:49:45;;;;;;;4.75;1.70;;;18.40;61.70;;;;;;5113282;28;20278;-63
2023/11/01 09:52:13;;;;;;;5.43;2.00;;;18.40;61.70;;;;;;5112778;28;20195;-62
2023/11/01 09:54:40;;;;;;;7.32;2.28;;;18.40;61.70;;;;;;5113191;28;20220;-62
2023/11/01 09:57:08;;;;;;;5.18;1.50;;;18.40;61.70;;;;;;5111951;28;20249;-60
2023/11/01 09:59:35;;;;;;;4.95;1.60;;;18.40;61.50;;;;;;5112401;28;20589;-61
2023/11/01 10:02:02;;;;;;;5.28;1.75;;;18.40;61.50;;;;;;5112962;28;20613;-62
2023/11/01 10:04:29;;;;;;;4.88;1.73;;;18.40;61.50;;;;;;5112723;28;20702;-61
2023/11/01 10:06:56;;;;;;;6.25;1.70;;;18.40;61.50;;;;;;5112590;28;20204;-62
2023/11/01 10:09:28;;;;;;;5.05;1.73;;;18.40;61.80;;;;;;5112619;28;20585;-61
2023/11/01 10:11:57;;;;;;;6.57;1.48;;;18.40;61.40;;;;;;5112920;28;20185;-63
2023/11/01 10:14:27;;;;;;;3.90;1.60;;;18.40;61.40;;;;;;5112506;28;20292;-63
2023/11/01 10:16:57;;;;;;;4.30;1.20;;;18.40;61.40;;;;;;5112716;28;20192;-60
2023/11/01 10:19:24;;;;;;;4.45;1.60;;;18.40;61.40;;;;;;5112531;28;20217;-62
2023/11/01 10:21:51;;;;;;;8.25;1.70;;;18.50;62.30;;;;;;5112138;28;20185;-63
2023/11/01 10:24:18;;;;;;;4.95;1.70;;;18.40;61.40;;;;;;5112716;28;20229;-62
2023/11/01 10:26:47;;;;;;;4.97;1.67;;;18.40;61.40;;;;;;5112902;28;20196;-63
2023/11/01 10:29:14;;;;;;;4.28;1.42;;;18.40;61.40;;;;;;5112380;28;20296;-63
2023/11/01 10:31:40;;;;;;;4.63;1.52;;;18.40;61.40;;;;;;5112610;28;20561;-62
2023/11/01 10:34:11;;;;;;;9.23;1.45;;;18.40;61.40;;;;;;5112310;28;20652;-60
2023/11/01 10:36:51;;;;;;;3.75;1.38;;;18.40;61.40;;;;;;5112549;28;20200;-63
2023/11/01 10:39:19;;;;;;;5.20;1.70;;;18.40;61.40;;;;;;5112448;28;20324;-63
2023/11/01 10:41:50;;;;;;;7.25;1.63;;;18.40;61.40;;;;;;5112419;28;20662;-63
2023/11/01 10:44:18;;;;;;;5.38;1.75;;;18.40;61.40;;;;;;5112269;28;20217;-62
2023/11/01 10:46:45;;;;;;;2.92;1.20;;;18.40;61.40;;;;;;5112285;28;20280;-63
2023/11/01 10:49:12;;;;;;;5.78;1.75;;;18.40;61.30;;;;;;5112513;28;20209;-63
2023/11/01 10:51:40;;;;;;;5.18;1.40;;;18.50;61.30;;;;;;5112257;28;20186;-61
2023/11/01 10:54:08;;;;;;;6.18;1.58;;;18.40;61.10;;;;;;5112549;28;22065;-62
2023/11/01 10:56:35;;;;;;;6.32;2.15;;;18.50;61.10;;;;;;5112136;28;20280;-63
2023/11/01 10:59:11;;;;;;;5.18;1.67;;;18.40;61.10;;;;;;5111648;28;20286;-62
2023/11/01 11:01:42;;;;;;;4.25;1.55;;;18.40;61.00;;;;;;5112680;28;20208;-61
2023/11/01 11:04:21;;;;;;;4.43;1.42;;;18.40;61.00;;;;;;5112326;28;20272;-63
2023/11/01 11:06:56;;;;;;;4.75;1.55;;;18.40;61.00;;;;;;5112113;28;20181;-60
2023/11/01 11:09:25;;;;;;;5.53;1.63;;;18.40;60.90;;;;;;5114332;28;20296;-62
2023/11/01 11:12:24;;;;;;;4.47;1.67;;;18.40;61.70;;;;;;5116205;28;20181;-62
2023/11/01 11:14:53;;;;;;;3.53;1.70;;;18.40;60.90;;;;;;5053352;28;20223;-62
2023/11/01 11:17:22;;;;;;;5.72;1.35;;;18.40;60.90;;;;;;5052911;28;20255;-62
2023/11/01 11:20:09;;;;;;;4.78;1.73;;;18.40;60.90;;;;;;5052450;28;20216;-61
2023/11/01 11:23:11;;;;;;;5.72;1.90;;;18.40;60.90;;;;;;5052909;28;20791;-62
2023/11/01 11:25:53;;;;;;;5.30;1.60;;;18.40;60.90;;;;;;5052824;28;20219;-61
2023/11/01 11:28:47;;;;;;;4.13;1.58;;;18.40;60.80;;;;;;5050427;28;20717;-63
2023/11/01 11:31:17;;;;;;;4.68;1.48;;;18.40;60.90;;;;;;5052648;28;20613;-61
2023/11/01 11:34:13;;;;;;;4.57;1.58;;;18.40;60.90;;;;;;5052568;28;20642;-60
2023/11/01 11:37:11;;;;;;;6.03;1.52;;;18.40;60.90;;;;;;5052678;28;20358;-62
2023/11/01 11:39:52;;;;;;;4.93;1.60;;;18.40;60.90;;;;;;5052368;28;20255;-61
2023/11/01 11:42:49;;;;;;;4.32;1.33;;;18.40;60.90;;;;;;5052308;28;20206;-63
2023/11/01 11:45:33;;;;;;;6.13;1.73;;;18.40;60.90;;;;;;5052380;28;20306;-63
2023/11/01 11:48:03;;;;;;;4.22;1.40;;;18.40;60.90;;;;;;5057412;28;20314;-62
2023/11/01 11:50:30;;;;;;;6.40;1.63;;;18.40;60.90;;;;;;5115329;28;20273;-63
2023/11/01 11:52:57;;;;;;;6.43;1.90;;;18.40;60.90;;;;;;5115146;28;20653;-61
2023/11/01 11:55:45;;;;;;;4.07;1.35;;;18.40;60.90;;;;;;5115471;28;20301;-61
2023/11/01 11:58:12;;;;;;;8.73;1.48;;;18.40;60.90;;;;;;5114953;28;20224;-62
2023/11/01 12:00:46;;;;;;;7.70;1.75;;;18.40;60.90;;;;;;5115582;28;20299;-63
2023/11/01 12:03:24;;;;;;;5.38;1.58;;;18.40;60.90;;;;;;5114947;28;20714;-63
2023/11/01 12:06:00;;;;;;;5.82;1.70;;;18.40;60.90;;;;;;5114611;28;20209;-63
2023/11/01 12:08:40;;;;;;;4.97;1.88;;;18.40;60.90;;;;;;5115150;28;20193;-63
2023/11/01 12:11:07;;;;;;;6.38;1.85;;;18.40;60.90;;;;;;5115103;28;20221;-59
2023/11/01 12:13:42;;;;;;;7.68;1.98;;;18.40;60.90;;;;;;5115020;28;20268;-62
2023/11/01 12:16:10;;;;;;;10.32;2.10;;;18.40;60.90;;;;;;5114711;28;20791;-63
2023/11/01 12:18:38;;;;;;;4.75;1.55;;;18.50;60.90;;;;;;5114465;28;20308;-63
2023/11/01 12:21:12;;;;;;;8.77;2.28;;;18.40;60.80;;;;;;5114164;28;20300;-63
2023/11/01 12:23:44;;;;;;;6.93;1.95;;;18.50;60.80;;;;;;5114842;28;20276;-60
2023/11/01 12:26:11;;;;;;;8.25;2.05;;;18.40;60.70;;;;;;5114637;28;20304;-63
2023/11/01 12:28:38;;;;;;;7.00;2.28;;;18.40;60.80;;;;;;5114811;28;20189;-63
2023/11/01 12:31:15;;;;;;;5.70;2.20;;;18.40;60.60;;;;;;5114914;28;20224;-63
2023/11/01 12:33:43;;;;;;;8.57;2.35;;;18.40;60.60;;;;;;5114033;28;20203;-63
2023/11/01 12:36:10;;;;;;;6.93;2.20;;;18.50;60.70;;;;;;5114501;28;20224;-62
2023/11/01 12:38:37;;;;;;;9.25;2.00;;;18.40;60.60;;;;;;5114034;28;20232;-63
2023/11/01 12:41:11;;;;;;;9.70;2.15;;;18.50;60.60;;;;;;5114532;28;20217;-63
2023/11/01 12:43:38;;;;;;;9.43;2.00;;;18.40;60.50;;;;;;5114534;28;20185;-63
2023/11/01 12:46:05;;;;;;;9.18;2.10;;;18.50;60.60;;;;;;5114260;28;20716;-63
2023/11/01 12:48:32;;;;;;;10.70;2.60;;;18.50;60.60;;;;;;5113639;28;20732;-63
2023/11/01 12:51:00;;;;;;;11.38;2.17;;;18.50;60.60;;;;;;5114106;28;20789;-61
2023/11/01 12:53:27;;;;;;;6.72;2.20;;;18.50;60.60;;;;;;5114015;28;20190;-61